sensor_id;sensor_type;location;lat;lon;timestamp;P1;durP1;ratioP1;P2;durP2;ratioP2
15246;SDS011;7726;48.820;9.248;2022-08-19T00:00:50;12.73;;;11.50;;
15246;SDS011;7726;48.820;9.248;2022-08-19T00:03:17;12.65;;;11.38;;
15246;SDS011;7726;48.820;9.248;2022-08-19T00:05:44;12.07;;;10.85;;
15246;SDS011;7726;48.820;9.248;2022-08-19T00:08:12;12.60;;;10.57;;
15246;SDS011;7726;48.820;9.248;2022-08-19T00:10:39;14.57;;;12.68;;
15246;SDS011;7726;48.820;9.248;2022-08-19T00:13:06;12.88;;;11.68;;
15246;SDS011;7726;48.820;9.248;2022-08-19T00:15:33;12.70;;;11.57;;
15246;SDS011;7726;48.820;9.248;2022-08-19T00:18:01;12.38;;;11.07;;
15246;SDS011;7726;48.820;9.248;2022-08-19T00:20:28;12.57;;;11.38;;
15246;SDS011;7726;48.820;9.248;2022-08-19T00:22:56;13.00;;;10.43;;
15246;SDS011;7726;48.820;9.248;2022-08-19T00:25:23;11.32;;;10.27;;
15246;SDS011;7726;48.820;9.248;2022-08-19T00:27:50;13.20;;;11.93;;
15246;SDS011;7726;48.820;9.248;2022-08-19T00:30:17;12.65;;;11.38;;
15246;SDS011;7726;48.820;9.248;2022-08-19T00:32:44;12.70;;;11.50;;
15246;SDS011;7726;48.820;9.248;2022-08-19T00:35:13;11.50;;;10.50;;
15246;SDS011;7726;48.820;9.248;2022-08-19T00:37:40;11.95;;;10.85;;
15246;SDS011;7726;48.820;9.248;2022-08-19T00:40:09;11.60;;;10.40;;
15246;SDS011;7726;48.820;9.248;2022-08-19T00:42:37;11.60;;;10.57;;
15246;SDS011;7726;48.820;9.248;2022-08-19T00:45:07;13.88;;;11.57;;
15246;SDS011;7726;48.820;9.248;2022-08-19T00:47:35;12.93;;;11.63;;
15246;SDS011;7726;48.820;9.248;2022-08-19T00:50:03;12.52;;;11.15;;
15246;SDS011;7726;48.820;9.248;2022-08-19T00:52:33;11.32;;;10.25;;
15246;SDS011;7726;48.820;9.248;2022-08-19T00:55:02;12.10;;;10.55;;
15246;SDS011;7726;48.820;9.248;2022-08-19T00:57:32;12.55;;;11.35;;
15246;SDS011;7726;48.820;9.248;2022-08-19T01:00:03;12.32;;;10.98;;
15246;SDS011;7726;48.820;9.248;2022-08-19T01:02:31;11.65;;;10.55;;
15246;SDS011;7726;48.820;9.248;2022-08-19T01:04:59;12.48;;;10.77;;
15246;SDS011;7726;48.820;9.248;2022-08-19T01:07:27;12.70;;;11.43;;
15246;SDS011;7726;48.820;9.248;2022-08-19T01:09:55;13.52;;;11.85;;
15246;SDS011;7726;48.820;9.248;2022-08-19T01:12:22;12.50;;;11.23;;
15246;SDS011;7726;48.820;9.248;2022-08-19T01:14:50;12.50;;;11.18;;
15246;SDS011;7726;48.820;9.248;2022-08-19T01:17:18;12.82;;;11.52;;
15246;SDS011;7726;48.820;9.248;2022-08-19T01:19:45;12.00;;;10.88;;
15246;SDS011;7726;48.820;9.248;2022-08-19T01:22:16;12.20;;;11.07;;
15246;SDS011;7726;48.820;9.248;2022-08-19T01:24:47;12.43;;;11.20;;
15246;SDS011;7726;48.820;9.248;2022-08-19T01:27:14;12.23;;;11.02;;
15246;SDS011;7726;48.820;9.248;2022-08-19T01:29:41;12.90;;;11.50;;
15246;SDS011;7726;48.820;9.248;2022-08-19T01:32:11;13.75;;;11.27;;
15246;SDS011;7726;48.820;9.248;2022-08-19T01:34:38;12.73;;;11.45;;
15246;SDS011;7726;48.820;9.248;2022-08-19T01:37:06;13.35;;;11.85;;
15246;SDS011;7726;48.820;9.248;2022-08-19T01:39:35;13.23;;;11.90;;
15246;SDS011;7726;48.820;9.248;2022-08-19T01:42:04;13.57;;;12.20;;
15246;SDS011;7726;48.820;9.248;2022-08-19T01:44:32;12.80;;;11.45;;
15246;SDS011;7726;48.820;9.248;2022-08-19T01:47:01;13.07;;;11.77;;
15246;SDS011;7726;48.820;9.248;2022-08-19T01:49:28;13.02;;;11.73;;
15246;SDS011;7726;48.820;9.248;2022-08-19T01:51:56;13.95;;;12.57;;
15246;SDS011;7726;48.820;9.248;2022-08-19T01:54:23;13.57;;;12.02;;
15246;SDS011;7726;48.820;9.248;2022-08-19T01:56:50;13.80;;;12.50;;
15246;SDS011;7726;48.820;9.248;2022-08-19T01:59:20;15.25;;;12.73;;
15246;SDS011;7726;48.820;9.248;2022-08-19T02:01:49;13.73;;;12.32;;
15246;SDS011;7726;48.820;9.248;2022-08-19T02:04:16;14.00;;;12.23;;
15246;SDS011;7726;48.820;9.248;2022-08-19T02:06:43;13.90;;;12.40;;
15246;SDS011;7726;48.820;9.248;2022-08-19T02:09:10;13.77;;;12.43;;
15246;SDS011;7726;48.820;9.248;2022-08-19T02:11:37;14.70;;;13.20;;
15246;SDS011;7726;48.820;9.248;2022-08-19T02:14:06;14.75;;;12.43;;
15246;SDS011;7726;48.820;9.248;2022-08-19T02:16:35;13.73;;;12.32;;
15246;SDS011;7726;48.820;9.248;2022-08-19T02:19:02;15.50;;;13.50;;
15246;SDS011;7726;48.820;9.248;2022-08-19T02:21:30;16.55;;;13.35;;
15246;SDS011;7726;48.820;9.248;2022-08-19T02:23:57;15.27;;;13.68;;
15246;SDS011;7726;48.820;9.248;2022-08-19T02:26:24;16.90;;;14.38;;
15246;SDS011;7726;48.820;9.248;2022-08-19T02:28:52;14.50;;;12.68;;
15246;SDS011;7726;48.820;9.248;2022-08-19T02:31:19;15.25;;;12.98;;
15246;SDS011;7726;48.820;9.248;2022-08-19T02:33:48;14.93;;;13.43;;
15246;SDS011;7726;48.820;9.248;2022-08-19T02:36:17;15.40;;;13.80;;
15246;SDS011;7726;48.820;9.248;2022-08-19T02:38:44;14.40;;;12.90;;
15246;SDS011;7726;48.820;9.248;2022-08-19T02:41:11;15.80;;;14.13;;
15246;SDS011;7726;48.820;9.248;2022-08-19T02:43:39;15.88;;;13.90;;
15246;SDS011;7726;48.820;9.248;2022-08-19T02:46:11;16.30;;;14.43;;
15246;SDS011;7726;48.820;9.248;2022-08-19T02:48:38;16.48;;;14.75;;
15246;SDS011;7726;48.820;9.248;2022-08-19T02:51:06;15.90;;;14.20;;
15246;SDS011;7726;48.820;9.248;2022-08-19T02:53:34;15.98;;;14.38;;
15246;SDS011;7726;48.820;9.248;2022-08-19T02:56:05;17.38;;;15.35;;
15246;SDS011;7726;48.820;9.248;2022-08-19T02:58:32;16.83;;;15.02;;
15246;SDS011;7726;48.820;9.248;2022-08-19T03:00:59;16.52;;;14.82;;
15246;SDS011;7726;48.820;9.248;2022-08-19T03:03:27;16.00;;;14.40;;
15246;SDS011;7726;48.820;9.248;2022-08-19T03:06:04;17.27;;;15.52;;
15246;SDS011;7726;48.820;9.248;2022-08-19T03:08:33;17.33;;;15.40;;
15246;SDS011;7726;48.820;9.248;2022-08-19T03:11:00;17.92;;;15.98;;
15246;SDS011;7726;48.820;9.248;2022-08-19T03:13:27;17.58;;;15.07;;
15246;SDS011;7726;48.820;9.248;2022-08-19T03:15:54;17.30;;;15.43;;
15246;SDS011;7726;48.820;9.248;2022-08-19T03:18:21;18.10;;;15.85;;
15246;SDS011;7726;48.820;9.248;2022-08-19T03:20:50;19.23;;;16.75;;
15246;SDS011;7726;48.820;9.248;2022-08-19T03:23:19;18.98;;;16.35;;
15246;SDS011;7726;48.820;9.248;2022-08-19T03:25:49;18.50;;;15.90;;
15246;SDS011;7726;48.820;9.248;2022-08-19T03:28:16;17.73;;;15.82;;
15246;SDS011;7726;48.820;9.248;2022-08-19T03:30:54;18.50;;;16.48;;
15246;SDS011;7726;48.820;9.248;2022-08-19T03:33:22;17.80;;;15.75;;
15246;SDS011;7726;48.820;9.248;2022-08-19T03:35:59;18.00;;;16.10;;
15246;SDS011;7726;48.820;9.248;2022-08-19T03:38:26;19.00;;;16.92;;
15246;SDS011;7726;48.820;9.248;2022-08-19T03:40:54;18.67;;;16.67;;
15246;SDS011;7726;48.820;9.248;2022-08-19T03:43:21;19.30;;;17.30;;
15246;SDS011;7726;48.820;9.248;2022-08-19T03:45:49;22.27;;;17.42;;
15246;SDS011;7726;48.820;9.248;2022-08-19T03:48:25;17.40;;;15.63;;
15246;SDS011;7726;48.820;9.248;2022-08-19T03:50:52;21.58;;;17.60;;
15246;SDS011;7726;48.820;9.248;2022-08-19T03:53:20;18.77;;;16.65;;
15246;SDS011;7726;48.820;9.248;2022-08-19T03:55:47;19.33;;;17.02;;
15246;SDS011;7726;48.820;9.248;2022-08-19T03:58:15;20.10;;;18.00;;
15246;SDS011;7726;48.820;9.248;2022-08-19T04:00:42;17.70;;;16.00;;
15246;SDS011;7726;48.820;9.248;2022-08-19T04:03:10;20.02;;;17.10;;
15246;SDS011;7726;48.820;9.248;2022-08-19T04:05:37;19.83;;;17.75;;
15246;SDS011;7726;48.820;9.248;2022-08-19T04:08:04;19.70;;;17.60;;
15246;SDS011;7726;48.820;9.248;2022-08-19T04:10:34;18.58;;;16.80;;
15246;SDS011;7726;48.820;9.248;2022-08-19T04:13:01;20.23;;;17.25;;
15246;SDS011;7726;48.820;9.248;2022-08-19T04:15:30;18.33;;;16.35;;
15246;SDS011;7726;48.820;9.248;2022-08-19T04:18:00;19.70;;;17.75;;
15246;SDS011;7726;48.820;9.248;2022-08-19T04:20:27;19.17;;;17.27;;
15246;SDS011;7726;48.820;9.248;2022-08-19T04:22:56;20.52;;;18.33;;
15246;SDS011;7726;48.820;9.248;2022-08-19T04:25:23;21.77;;;18.40;;
15246;SDS011;7726;48.820;9.248;2022-08-19T04:27:50;18.73;;;16.80;;
15246;SDS011;7726;48.820;9.248;2022-08-19T04:30:17;20.85;;;17.23;;
15246;SDS011;7726;48.820;9.248;2022-08-19T04:32:48;20.02;;;17.92;;
15246;SDS011;7726;48.820;9.248;2022-08-19T04:35:16;21.77;;;17.85;;
15246;SDS011;7726;48.820;9.248;2022-08-19T04:37:43;21.27;;;18.20;;
15246;SDS011;7726;48.820;9.248;2022-08-19T04:40:10;20.05;;;17.90;;
15246;SDS011;7726;48.820;9.248;2022-08-19T04:42:55;22.75;;;17.65;;
15246;SDS011;7726;48.820;9.248;2022-08-19T04:45:22;21.70;;;19.48;;
15246;SDS011;7726;48.820;9.248;2022-08-19T04:47:54;21.40;;;18.38;;
15246;SDS011;7726;48.820;9.248;2022-08-19T04:50:22;19.27;;;17.17;;
15246;SDS011;7726;48.820;9.248;2022-08-19T04:52:49;21.92;;;18.40;;
15246;SDS011;7726;48.820;9.248;2022-08-19T04:55:17;20.02;;;17.90;;
15246;SDS011;7726;48.820;9.248;2022-08-19T04:57:44;19.10;;;17.10;;
15246;SDS011;7726;48.820;9.248;2022-08-19T05:00:12;20.20;;;18.13;;
15246;SDS011;7726;48.820;9.248;2022-08-19T05:02:39;20.50;;;17.80;;
15246;SDS011;7726;48.820;9.248;2022-08-19T05:05:08;20.92;;;17.42;;
15246;SDS011;7726;48.820;9.248;2022-08-19T05:07:35;21.35;;;18.60;;
15246;SDS011;7726;48.820;9.248;2022-08-19T05:10:02;21.73;;;19.42;;
15246;SDS011;7726;48.820;9.248;2022-08-19T05:12:31;20.45;;;18.25;;
15246;SDS011;7726;48.820;9.248;2022-08-19T05:14:58;22.38;;;19.17;;
15246;SDS011;7726;48.820;9.248;2022-08-19T05:17:26;20.13;;;17.52;;
15246;SDS011;7726;48.820;9.248;2022-08-19T05:19:54;21.17;;;18.88;;
15246;SDS011;7726;48.820;9.248;2022-08-19T05:22:40;20.48;;;17.33;;
15246;SDS011;7726;48.820;9.248;2022-08-19T05:25:08;20.98;;;18.80;;
15246;SDS011;7726;48.820;9.248;2022-08-19T05:27:35;19.08;;;16.85;;
15246;SDS011;7726;48.820;9.248;2022-08-19T05:30:03;19.55;;;17.55;;
15246;SDS011;7726;48.820;9.248;2022-08-19T05:32:30;23.52;;;18.98;;
15246;SDS011;7726;48.820;9.248;2022-08-19T05:34:57;21.17;;;18.58;;
15246;SDS011;7726;48.820;9.248;2022-08-19T05:37:24;18.90;;;16.88;;
15246;SDS011;7726;48.820;9.248;2022-08-19T05:39:54;21.27;;;18.73;;
15246;SDS011;7726;48.820;9.248;2022-08-19T05:42:22;20.80;;;18.48;;
15246;SDS011;7726;48.820;9.248;2022-08-19T05:44:49;19.95;;;17.95;;
15246;SDS011;7726;48.820;9.248;2022-08-19T05:47:17;21.60;;;18.27;;
15246;SDS011;7726;48.820;9.248;2022-08-19T05:49:45;21.88;;;18.13;;
15246;SDS011;7726;48.820;9.248;2022-08-19T05:52:13;19.77;;;17.67;;
15246;SDS011;7726;48.820;9.248;2022-08-19T05:54:42;22.88;;;18.65;;
15246;SDS011;7726;48.820;9.248;2022-08-19T05:57:14;20.75;;;18.65;;
15246;SDS011;7726;48.820;9.248;2022-08-19T05:59:41;20.70;;;18.48;;
15246;SDS011;7726;48.820;9.248;2022-08-19T06:02:10;20.63;;;18.50;;
15246;SDS011;7726;48.820;9.248;2022-08-19T06:04:38;21.15;;;18.83;;
15246;SDS011;7726;48.820;9.248;2022-08-19T06:07:07;21.15;;;18.92;;
15246;SDS011;7726;48.820;9.248;2022-08-19T06:09:34;20.90;;;18.60;;
15246;SDS011;7726;48.820;9.248;2022-08-19T06:12:02;20.48;;;18.38;;
15246;SDS011;7726;48.820;9.248;2022-08-19T06:14:32;21.20;;;18.90;;
15246;SDS011;7726;48.820;9.248;2022-08-19T06:17:00;22.13;;;19.48;;
15246;SDS011;7726;48.820;9.248;2022-08-19T06:19:27;21.02;;;18.58;;
15246;SDS011;7726;48.820;9.248;2022-08-19T06:21:55;22.60;;;18.98;;
15246;SDS011;7726;48.820;9.248;2022-08-19T06:24:24;22.63;;;19.35;;
15246;SDS011;7726;48.820;9.248;2022-08-19T06:26:52;21.67;;;19.30;;
15246;SDS011;7726;48.820;9.248;2022-08-19T06:29:21;21.08;;;18.23;;
15246;SDS011;7726;48.820;9.248;2022-08-19T06:31:51;22.92;;;19.38;;
15246;SDS011;7726;48.820;9.248;2022-08-19T06:34:18;22.17;;;19.50;;
15246;SDS011;7726;48.820;9.248;2022-08-19T06:36:47;26.02;;;20.60;;
15246;SDS011;7726;48.820;9.248;2022-08-19T06:39:15;23.95;;;19.85;;
15246;SDS011;7726;48.820;9.248;2022-08-19T06:41:45;23.00;;;19.67;;
15246;SDS011;7726;48.820;9.248;2022-08-19T06:44:12;22.20;;;19.58;;
15246;SDS011;7726;48.820;9.248;2022-08-19T06:46:39;22.33;;;19.13;;
15246;SDS011;7726;48.820;9.248;2022-08-19T06:49:08;22.75;;;19.55;;
15246;SDS011;7726;48.820;9.248;2022-08-19T06:51:39;23.98;;;18.98;;
15246;SDS011;7726;48.820;9.248;2022-08-19T06:54:06;26.48;;;20.23;;
15246;SDS011;7726;48.820;9.248;2022-08-19T06:56:33;23.92;;;20.25;;
15246;SDS011;7726;48.820;9.248;2022-08-19T06:59:01;24.48;;;20.30;;
15246;SDS011;7726;48.820;9.248;2022-08-19T07:01:28;26.02;;;20.60;;
15246;SDS011;7726;48.820;9.248;2022-08-19T07:03:55;26.25;;;19.48;;
15246;SDS011;7726;48.820;9.248;2022-08-19T07:06:24;26.42;;;20.25;;
15246;SDS011;7726;48.820;9.248;2022-08-19T07:08:51;23.05;;;20.27;;
15246;SDS011;7726;48.820;9.248;2022-08-19T07:11:18;24.40;;;19.20;;
15246;SDS011;7726;48.820;9.248;2022-08-19T07:13:46;21.23;;;18.85;;
15246;SDS011;7726;48.820;9.248;2022-08-19T07:16:15;20.70;;;18.60;;
15246;SDS011;7726;48.820;9.248;2022-08-19T07:18:42;21.52;;;19.27;;
15246;SDS011;7726;48.820;9.248;2022-08-19T07:21:11;21.92;;;18.38;;
15246;SDS011;7726;48.820;9.248;2022-08-19T07:23:40;19.95;;;17.85;;
15246;SDS011;7726;48.820;9.248;2022-08-19T07:26:07;20.02;;;17.92;;
15246;SDS011;7726;48.820;9.248;2022-08-19T07:28:34;21.55;;;17.88;;
15246;SDS011;7726;48.820;9.248;2022-08-19T07:31:04;20.38;;;18.30;;
15246;SDS011;7726;48.820;9.248;2022-08-19T07:33:31;19.70;;;17.63;;
15246;SDS011;7726;48.820;9.248;2022-08-19T07:36:00;20.63;;;18.35;;
15246;SDS011;7726;48.820;9.248;2022-08-19T07:38:28;19.27;;;17.25;;
15246;SDS011;7726;48.820;9.248;2022-08-19T07:40:56;20.10;;;17.25;;
15246;SDS011;7726;48.820;9.248;2022-08-19T07:43:23;19.73;;;17.85;;
15246;SDS011;7726;48.820;9.248;2022-08-19T07:45:51;18.83;;;16.80;;
15246;SDS011;7726;48.820;9.248;2022-08-19T07:48:21;20.15;;;18.08;;
15246;SDS011;7726;48.820;9.248;2022-08-19T07:50:49;19.25;;;17.25;;
15246;SDS011;7726;48.820;9.248;2022-08-19T07:53:17;24.23;;;18.27;;
15246;SDS011;7726;48.820;9.248;2022-08-19T07:55:45;19.60;;;17.60;;
15246;SDS011;7726;48.820;9.248;2022-08-19T07:58:14;18.73;;;16.77;;
15246;SDS011;7726;48.820;9.248;2022-08-19T08:00:42;17.73;;;15.80;;
15246;SDS011;7726;48.820;9.248;2022-08-19T08:03:09;19.67;;;17.50;;
15246;SDS011;7726;48.820;9.248;2022-08-19T08:05:37;21.17;;;18.08;;
15246;SDS011;7726;48.820;9.248;2022-08-19T08:08:22;20.17;;;17.10;;
15246;SDS011;7726;48.820;9.248;2022-08-19T08:11:21;20.33;;;18.23;;
15246;SDS011;7726;48.820;9.248;2022-08-19T08:13:49;25.15;;;17.88;;
15246;SDS011;7726;48.820;9.248;2022-08-19T08:16:16;20.27;;;17.75;;
15246;SDS011;7726;48.820;9.248;2022-08-19T08:18:43;20.27;;;17.85;;
15246;SDS011;7726;48.820;9.248;2022-08-19T08:21:11;18.52;;;16.30;;
15246;SDS011;7726;48.820;9.248;2022-08-19T08:23:38;18.45;;;16.27;;
15246;SDS011;7726;48.820;9.248;2022-08-19T08:26:05;19.13;;;17.27;;
15246;SDS011;7726;48.820;9.248;2022-08-19T08:28:32;20.13;;;16.30;;
15246;SDS011;7726;48.820;9.248;2022-08-19T08:31:01;20.55;;;16.85;;
15246;SDS011;7726;48.820;9.248;2022-08-19T08:33:28;19.55;;;16.73;;
15246;SDS011;7726;48.820;9.248;2022-08-19T08:35:56;19.10;;;17.02;;
15246;SDS011;7726;48.820;9.248;2022-08-19T08:38:23;18.75;;;16.75;;
15246;SDS011;7726;48.820;9.248;2022-08-19T08:40:51;19.88;;;17.75;;
15246;SDS011;7726;48.820;9.248;2022-08-19T08:43:22;19.55;;;17.48;;
15246;SDS011;7726;48.820;9.248;2022-08-19T08:45:52;20.65;;;17.00;;
15246;SDS011;7726;48.820;9.248;2022-08-19T08:48:22;18.90;;;16.40;;
15246;SDS011;7726;48.820;9.248;2022-08-19T08:50:50;18.35;;;16.33;;
15246;SDS011;7726;48.820;9.248;2022-08-19T08:53:23;17.95;;;16.15;;
15246;SDS011;7726;48.820;9.248;2022-08-19T08:55:51;16.80;;;15.10;;
15246;SDS011;7726;48.820;9.248;2022-08-19T08:58:20;18.27;;;15.57;;
15246;SDS011;7726;48.820;9.248;2022-08-19T09:00:51;19.65;;;16.70;;
15246;SDS011;7726;48.820;9.248;2022-08-19T09:03:19;17.05;;;15.35;;
15246;SDS011;7726;48.820;9.248;2022-08-19T09:05:52;19.20;;;16.38;;
15246;SDS011;7726;48.820;9.248;2022-08-19T09:08:24;19.17;;;17.27;;
15246;SDS011;7726;48.820;9.248;2022-08-19T09:10:54;19.48;;;17.48;;
15246;SDS011;7726;48.820;9.248;2022-08-19T09:13:28;21.02;;;16.58;;
15246;SDS011;7726;48.820;9.248;2022-08-19T09:16:01;23.48;;;16.23;;
15246;SDS011;7726;48.820;9.248;2022-08-19T09:18:38;17.63;;;15.82;;
15246;SDS011;7726;48.820;9.248;2022-08-19T09:21:07;18.42;;;16.63;;
15246;SDS011;7726;48.820;9.248;2022-08-19T09:23:36;20.83;;;17.20;;
15246;SDS011;7726;48.820;9.248;2022-08-19T09:26:06;18.90;;;16.90;;
15246;SDS011;7726;48.820;9.248;2022-08-19T09:28:33;18.48;;;16.50;;
15246;SDS011;7726;48.820;9.248;2022-08-19T09:31:02;18.63;;;16.13;;
15246;SDS011;7726;48.820;9.248;2022-08-19T09:33:29;23.40;;;17.85;;
15246;SDS011;7726;48.820;9.248;2022-08-19T09:36:05;19.55;;;17.35;;
15246;SDS011;7726;48.820;9.248;2022-08-19T09:38:34;21.80;;;17.00;;
15246;SDS011;7726;48.820;9.248;2022-08-19T09:41:02;21.85;;;17.15;;
15246;SDS011;7726;48.820;9.248;2022-08-19T09:43:30;20.75;;;17.88;;
15246;SDS011;7726;48.820;9.248;2022-08-19T09:45:58;19.95;;;17.00;;
15246;SDS011;7726;48.820;9.248;2022-08-19T09:48:25;18.60;;;16.65;;
15246;SDS011;7726;48.820;9.248;2022-08-19T09:50:53;17.63;;;15.75;;
15246;SDS011;7726;48.820;9.248;2022-08-19T09:53:20;18.20;;;16.30;;
15246;SDS011;7726;48.820;9.248;2022-08-19T09:55:49;18.33;;;16.00;;
15246;SDS011;7726;48.820;9.248;2022-08-19T09:58:16;18.65;;;16.85;;
15246;SDS011;7726;48.820;9.248;2022-08-19T10:00:46;18.48;;;16.00;;
15246;SDS011;7726;48.820;9.248;2022-08-19T10:03:13;19.25;;;16.33;;
15246;SDS011;7726;48.820;9.248;2022-08-19T10:05:40;19.48;;;16.55;;
15246;SDS011;7726;48.820;9.248;2022-08-19T10:08:18;18.02;;;16.15;;
15246;SDS011;7726;48.820;9.248;2022-08-19T10:10:45;20.90;;;16.83;;
15246;SDS011;7726;48.820;9.248;2022-08-19T10:13:14;19.02;;;16.63;;
15246;SDS011;7726;48.820;9.248;2022-08-19T10:15:42;20.98;;;17.17;;
15246;SDS011;7726;48.820;9.248;2022-08-19T10:18:11;22.85;;;17.15;;
15246;SDS011;7726;48.820;9.248;2022-08-19T10:20:38;19.45;;;17.08;;
15246;SDS011;7726;48.820;9.248;2022-08-19T10:23:06;20.77;;;15.82;;
15246;SDS011;7726;48.820;9.248;2022-08-19T10:25:33;22.63;;;17.00;;
15246;SDS011;7726;48.820;9.248;2022-08-19T10:28:01;24.90;;;17.38;;
15246;SDS011;7726;48.820;9.248;2022-08-19T10:30:29;22.10;;;16.90;;
15246;SDS011;7726;48.820;9.248;2022-08-19T10:32:56;17.77;;;15.88;;
15246;SDS011;7726;48.820;9.248;2022-08-19T10:35:24;16.73;;;14.95;;
15246;SDS011;7726;48.820;9.248;2022-08-19T10:37:54;18.73;;;15.35;;
15246;SDS011;7726;48.820;9.248;2022-08-19T10:40:24;18.38;;;14.98;;
15246;SDS011;7726;48.820;9.248;2022-08-19T10:42:52;18.58;;;14.98;;
15246;SDS011;7726;48.820;9.248;2022-08-19T10:45:20;17.83;;;14.40;;
15246;SDS011;7726;48.820;9.248;2022-08-19T10:47:52;17.48;;;15.20;;
15246;SDS011;7726;48.820;9.248;2022-08-19T10:50:19;16.35;;;13.85;;
15246;SDS011;7726;48.820;9.248;2022-08-19T10:53:05;19.67;;;15.18;;
15246;SDS011;7726;48.820;9.248;2022-08-19T10:55:34;14.77;;;13.35;;
15246;SDS011;7726;48.820;9.248;2022-08-19T10:58:33;17.73;;;14.57;;
15246;SDS011;7726;48.820;9.248;2022-08-19T11:01:00;16.73;;;14.93;;
15246;SDS011;7726;48.820;9.248;2022-08-19T11:03:29;16.20;;;12.52;;
15246;SDS011;7726;48.820;9.248;2022-08-19T11:05:59;15.15;;;13.60;;
15246;SDS011;7726;48.820;9.248;2022-08-19T11:08:26;17.90;;;12.77;;
15246;SDS011;7726;48.820;9.248;2022-08-19T11:10:57;16.20;;;12.75;;
15246;SDS011;7726;48.820;9.248;2022-08-19T11:13:26;13.43;;;11.82;;
15246;SDS011;7726;48.820;9.248;2022-08-19T11:15:57;16.23;;;11.52;;
15246;SDS011;7726;48.820;9.248;2022-08-19T11:18:24;15.20;;;12.45;;
15246;SDS011;7726;48.820;9.248;2022-08-19T11:20:52;17.20;;;14.77;;
15246;SDS011;7726;48.820;9.248;2022-08-19T11:23:19;16.30;;;14.60;;
15246;SDS011;7726;48.820;9.248;2022-08-19T11:25:47;17.10;;;14.45;;
15246;SDS011;7726;48.820;9.248;2022-08-19T11:28:14;17.42;;;14.88;;
15246;SDS011;7726;48.820;9.248;2022-08-19T11:30:41;14.48;;;12.98;;
15246;SDS011;7726;48.820;9.248;2022-08-19T11:33:08;17.40;;;14.15;;
15246;SDS011;7726;48.820;9.248;2022-08-19T11:35:38;19.20;;;14.25;;
15246;SDS011;7726;48.820;9.248;2022-08-19T11:38:06;20.35;;;13.57;;
15246;SDS011;7726;48.820;9.248;2022-08-19T11:40:33;14.45;;;11.73;;
15246;SDS011;7726;48.820;9.248;2022-08-19T11:43:00;14.38;;;12.70;;
15246;SDS011;7726;48.820;9.248;2022-08-19T11:45:28;15.35;;;13.70;;
15246;SDS011;7726;48.820;9.248;2022-08-19T11:47:55;15.13;;;13.52;;
15246;SDS011;7726;48.820;9.248;2022-08-19T11:50:23;15.63;;;14.00;;
15246;SDS011;7726;48.820;9.248;2022-08-19T11:52:52;14.93;;;13.40;;
15246;SDS011;7726;48.820;9.248;2022-08-19T11:55:21;15.93;;;13.35;;
15246;SDS011;7726;48.820;9.248;2022-08-19T11:57:48;11.15;;;10.05;;
15246;SDS011;7726;48.820;9.248;2022-08-19T12:00:15;11.52;;;10.25;;
15246;SDS011;7726;48.820;9.248;2022-08-19T12:02:43;10.65;;;9.18;;
15246;SDS011;7726;48.820;9.248;2022-08-19T12:05:10;12.32;;;10.02;;
15246;SDS011;7726;48.820;9.248;2022-08-19T12:07:37;10.25;;;9.35;;
15246;SDS011;7726;48.820;9.248;2022-08-19T12:10:04;11.35;;;9.23;;
15246;SDS011;7726;48.820;9.248;2022-08-19T12:12:33;10.95;;;9.50;;
15246;SDS011;7726;48.820;9.248;2022-08-19T12:15:00;10.88;;;9.73;;
15246;SDS011;7726;48.820;9.248;2022-08-19T12:17:27;10.40;;;9.30;;
15246;SDS011;7726;48.820;9.248;2022-08-19T12:19:55;10.38;;;9.35;;
15246;SDS011;7726;48.820;9.248;2022-08-19T12:22:22;10.23;;;9.20;;
15246;SDS011;7726;48.820;9.248;2022-08-19T12:24:50;11.38;;;9.90;;
15246;SDS011;7726;48.820;9.248;2022-08-19T12:27:18;10.57;;;9.02;;
15246;SDS011;7726;48.820;9.248;2022-08-19T12:29:47;11.18;;;10.07;;
15246;SDS011;7726;48.820;9.248;2022-08-19T12:32:14;14.32;;;12.38;;
15246;SDS011;7726;48.820;9.248;2022-08-19T12:34:41;13.90;;;11.95;;
15246;SDS011;7726;48.820;9.248;2022-08-19T12:37:09;13.50;;;12.20;;
15246;SDS011;7726;48.820;9.248;2022-08-19T12:39:37;14.60;;;13.02;;
15246;SDS011;7726;48.820;9.248;2022-08-19T12:42:05;14.23;;;12.93;;
15246;SDS011;7726;48.820;9.248;2022-08-19T12:44:33;14.38;;;12.88;;
15246;SDS011;7726;48.820;9.248;2022-08-19T12:47:02;19.05;;;15.77;;
15246;SDS011;7726;48.820;9.248;2022-08-19T12:49:29;18.80;;;16.90;;
15246;SDS011;7726;48.820;9.248;2022-08-19T12:51:58;19.02;;;17.10;;
15246;SDS011;7726;48.820;9.248;2022-08-19T12:54:25;19.80;;;17.10;;
15246;SDS011;7726;48.820;9.248;2022-08-19T12:56:52;21.67;;;18.20;;
15246;SDS011;7726;48.820;9.248;2022-08-19T12:59:20;19.92;;;17.90;;
15246;SDS011;7726;48.820;9.248;2022-08-19T13:01:47;20.50;;;18.40;;
15246;SDS011;7726;48.820;9.248;2022-08-19T13:04:16;19.77;;;17.77;;
15246;SDS011;7726;48.820;9.248;2022-08-19T13:06:43;21.80;;;19.50;;
15246;SDS011;7726;48.820;9.248;2022-08-19T13:09:10;20.15;;;18.05;;
15246;SDS011;7726;48.820;9.248;2022-08-19T13:11:37;20.60;;;18.40;;
15246;SDS011;7726;48.820;9.248;2022-08-19T13:14:05;21.13;;;18.00;;
15246;SDS011;7726;48.820;9.248;2022-08-19T13:16:32;22.20;;;19.20;;
15246;SDS011;7726;48.820;9.248;2022-08-19T13:18:59;21.92;;;19.33;;
15246;SDS011;7726;48.820;9.248;2022-08-19T13:21:30;21.73;;;19.45;;
15246;SDS011;7726;48.820;9.248;2022-08-19T13:23:58;24.30;;;21.58;;
15246;SDS011;7726;48.820;9.248;2022-08-19T13:26:25;22.95;;;20.63;;
15246;SDS011;7726;48.820;9.248;2022-08-19T13:28:52;25.33;;;20.27;;
15246;SDS011;7726;48.820;9.248;2022-08-19T13:31:38;21.10;;;18.83;;
15246;SDS011;7726;48.820;9.248;2022-08-19T13:34:26;23.25;;;20.80;;
15246;SDS011;7726;48.820;9.248;2022-08-19T13:36:55;23.45;;;20.58;;
15246;SDS011;7726;48.820;9.248;2022-08-19T13:39:22;25.90;;;21.23;;
15246;SDS011;7726;48.820;9.248;2022-08-19T13:41:49;24.60;;;20.98;;
15246;SDS011;7726;48.820;9.248;2022-08-19T13:44:16;24.50;;;20.95;;
15246;SDS011;7726;48.820;9.248;2022-08-19T13:46:44;23.77;;;21.25;;
15246;SDS011;7726;48.820;9.248;2022-08-19T13:49:11;23.50;;;21.10;;
15246;SDS011;7726;48.820;9.248;2022-08-19T13:51:40;22.27;;;19.88;;
15246;SDS011;7726;48.820;9.248;2022-08-19T13:54:09;23.83;;;20.52;;
15246;SDS011;7726;48.820;9.248;2022-08-19T13:56:39;22.77;;;20.45;;
15246;SDS011;7726;48.820;9.248;2022-08-19T13:59:07;24.73;;;21.40;;
15246;SDS011;7726;48.820;9.248;2022-08-19T14:01:34;24.67;;;21.58;;
15246;SDS011;7726;48.820;9.248;2022-08-19T14:04:01;23.50;;;21.10;;
15246;SDS011;7726;48.820;9.248;2022-08-19T14:06:28;23.85;;;21.25;;
15246;SDS011;7726;48.820;9.248;2022-08-19T14:08:56;25.20;;;22.42;;
15246;SDS011;7726;48.820;9.248;2022-08-19T14:11:24;25.55;;;22.90;;
15246;SDS011;7726;48.820;9.248;2022-08-19T14:13:52;25.35;;;22.23;;
15246;SDS011;7726;48.820;9.248;2022-08-19T14:16:19;30.42;;;23.67;;
15246;SDS011;7726;48.820;9.248;2022-08-19T14:18:47;29.60;;;23.77;;
15246;SDS011;7726;48.820;9.248;2022-08-19T14:21:15;26.38;;;22.92;;
15246;SDS011;7726;48.820;9.248;2022-08-19T14:23:43;26.55;;;23.45;;
15246;SDS011;7726;48.820;9.248;2022-08-19T14:26:11;26.65;;;23.90;;
15246;SDS011;7726;48.820;9.248;2022-08-19T14:28:41;31.10;;;24.25;;
15246;SDS011;7726;48.820;9.248;2022-08-19T14:31:08;26.77;;;23.98;;
15246;SDS011;7726;48.820;9.248;2022-08-19T14:33:35;26.73;;;23.88;;
15246;SDS011;7726;48.820;9.248;2022-08-19T14:36:03;29.40;;;24.33;;
15246;SDS011;7726;48.820;9.248;2022-08-19T14:38:30;26.00;;;23.20;;
15246;SDS011;7726;48.820;9.248;2022-08-19T14:41:11;28.25;;;24.30;;
15246;SDS011;7726;48.820;9.248;2022-08-19T14:43:42;27.80;;;23.95;;